Bancroft, WI (54921)

6:40 AM CST on February 08, 2016 (GMT -0600)
NWS Station PLOW3, Tim Bubla | | Change Station
CLOSE
Current Station
Personal Weather Station
Location: Plover, WI
Elevation: 1070 ft
Nearby Weather Stations

Elev 1070 ft 44.44 °N, 89.55 °W | Updated 1 second ago

Overcast
Overcast
21.2 °F
Feels Like 12 °F
N
8.1
Wind Variable Wind from WNW
Gusts 8.1 mph

Today
High -- | Low -- °F
--% Chance of Precip.
Yesterday
High -- | Low -- °F
Precip. -- in
Pressure 29.69 in
Visibility 10.0 miles
Clouds Few 1600 ft
Scattered Clouds 6000 ft
Overcast 8500 ft
Windchill 12 °F
Dew Point 7 °F
Humidity 54%
Rainfall 0.00 in
Snow Depth Not available.
7:08 AM 5:16 PM
Waning Crescent, 0% visible
METAR KISW 081154Z AUTO 31011KT 10SM FEW016 SCT060 OVC085 M07/M11 A2965 RMK AO2 SNE00 SLP052 P0000 60000 T10671106 11006 21067 53010
Pressure 29.69 in
Visibility 10.0 miles
Clouds Few 1600 ft
Scattered Clouds 6000 ft
Overcast 8500 ft
Windchill 12 °F
Dew Point 7 °F
Humidity 54%
Rainfall 0.00 in
Snow Depth Not available.
7:08 AM 5:16 PM
Waning Crescent, 0% visible
METAR KISW 081154Z AUTO 31011KT 10SM FEW016 SCT060 OVC085 M07/M11 A2965 RMK AO2 SNE00 SLP052 P0000 60000 T10671106 11006 21067 53010

10-Day Weather Forecast

Almanac

Astronomy

Feb. 08, 2016 Rise Set
Actual Time
Civil Twilight
Nautical Twilight
Astronomical Twilight
Moon
Length of Visible Light
Length of Day
Tomorrow will be .
, % of the Moon is Illuminated

Today's Extremes

State Highs State Lows

Community

WunderPhotos

Upload Photos

1,891,426 photos uploaded!

WunderBlog® & News

Nearby

Air Quality

  Air Quality AQ Index Pollutant
Not available.

Snow Depth

Station Depth Elevation

Earthquake Activity

City Distance Mag. Time & Date
Minimum magnitude displayed is 2.5.

Coastal Water Temperatures

Place Temperature

Stations

Nearby Weather Stations

Station Location Temp. Windchill Dew Point Humidity Wind Precip. Elev Updated Type
                   

Watches & Warnings

There are currently no watches in effect.